Time;durP1;ratioP1;P1;durP2;ratioP2;P2;SDS_P1;SDS_P2;PMS_P1;PMS_P2;Temp;Humidity;BMP_temperature;BMP_pressure;BME280_temperature;BME280_humidity;BME280_pressure;Samples;Min_cycle;Max_cycle;Signal;HPM_P1;HPM_P2
2021/03/07 00:01:48;;;;;;;13.68;10.57;;;-0.10;99.90;;;;;;5017625;28;20097;-70
2021/03/07 00:04:14;;;;;;;11.60;9.95;;;0.00;99.90;;;;;;5015722;28;20076;-71
2021/03/07 00:06:39;;;;;;;12.80;9.75;;;0.00;99.90;;;;;;5016033;28;20068;-69
2021/03/07 00:09:05;;;;;;;12.95;9.95;;;-0.10;99.90;;;;;;5014410;28;20041;-70
2021/03/07 00:11:31;;;;;;;13.90;9.35;;;-0.20;99.90;;;;;;5017485;28;20026;-69
2021/03/07 00:13:57;;;;;;;14.65;10.50;;;-0.10;99.90;;;;;;5022256;28;20026;-70
2021/03/07 00:16:22;;;;;;;12.93;9.18;;;-0.10;99.90;;;;;;5022212;28;20025;-71
2021/03/07 00:18:48;;;;;;;14.20;9.32;;;-0.10;99.90;;;;;;5020087;28;20080;-69
2021/03/07 00:21:15;;;;;;;13.05;10.02;;;-0.20;99.90;;;;;;5017962;28;20497;-70
2021/03/07 00:23:41;;;;;;;14.75;10.00;;;-0.20;99.90;;;;;;5013282;28;20056;-69
2021/03/07 00:26:07;;;;;;;13.00;8.75;;;-0.20;99.90;;;;;;5012888;28;20025;-70
2021/03/07 00:28:33;;;;;;;12.95;9.05;;;-0.30;99.90;;;;;;5012463;28;20489;-70
2021/03/07 00:30:58;;;;;;;11.90;9.85;;;-0.20;99.90;;;;;;5012485;28;20026;-70
2021/03/07 00:33:24;;;;;;;10.10;8.90;;;-0.20;99.90;;;;;;4995181;28;20030;-69
2021/03/07 00:35:50;;;;;;;11.20;9.27;;;-0.20;99.90;;;;;;5013086;28;20555;-69
2021/03/07 00:38:15;;;;;;;11.75;9.43;;;-0.20;99.90;;;;;;5012950;28;20033;-69
2021/03/07 00:40:41;;;;;;;12.48;9.43;;;-0.30;99.90;;;;;;5013160;28;20054;-69
2021/03/07 00:43:06;;;;;;;14.85;10.20;;;0.00;99.90;;;;;;5013495;28;20482;-68
2021/03/07 00:45:33;;;;;;;13.13;9.95;;;0.00;99.90;;;;;;5015327;28;20434;-68
2021/03/07 00:47:59;;;;;;;11.85;9.10;;;-0.10;99.90;;;;;;5017411;28;20476;-71
2021/03/07 00:50:26;;;;;;;10.50;9.18;;;-0.20;99.90;;;;;;5020493;28;20033;-70
2021/03/07 00:52:54;;;;;;;13.65;9.93;;;-0.20;99.90;;;;;;5024509;28;20037;-70
2021/03/07 00:55:19;;;;;;;14.52;10.93;;;-0.30;1.00;;;;;;5024342;28;20029;-69
2021/03/07 00:57:45;;;;;;;13.10;10.38;;;-0.40;1.00;;;;;;5023740;28;20049;-70
2021/03/07 01:00:19;;;;;;;11.02;9.30;;;-0.30;1.00;;;;;;5022241;28;20061;-69
2021/03/07 01:02:44;;;;;;;14.25;9.82;;;-0.20;1.00;;;;;;5015260;28;20022;-69
2021/03/07 01:05:10;;;;;;;14.95;10.32;;;-0.10;1.00;;;;;;5015329;28;20029;-69
2021/03/07 01:07:36;;;;;;;12.07;9.95;;;-0.10;1.00;;;;;;5015136;28;20033;-69
2021/03/07 01:10:08;;;;;;;15.48;10.15;;;0.00;1.00;;;;;;5014910;28;20021;-69
2021/03/07 01:12:34;;;;;;;14.88;10.23;;;0.10;1.00;;;;;;5014857;28;20496;-69
2021/03/07 01:14:59;;;;;;;13.70;10.25;;;-0.10;1.00;;;;;;5015267;28;20030;-69
2021/03/07 01:17:25;;;;;;;13.02;10.68;;;-0.20;1.00;;;;;;5015417;28;20026;-69
2021/03/07 01:19:50;;;;;;;14.45;11.20;;;-0.30;1.00;;;;;;5022020;28;20026;-69
2021/03/07 01:22:16;;;;;;;15.77;11.80;;;-0.40;1.00;;;;;;5024279;28;20037;-69
2021/03/07 01:24:42;;;;;;;19.15;10.48;;;-0.50;1.00;;;;;;5025073;28;20097;-70
2021/03/07 01:27:08;;;;;;;12.88;9.55;;;-0.50;1.00;;;;;;5026022;28;20052;-70
2021/03/07 01:29:33;;;;;;;13.25;9.30;;;-0.60;1.00;;;;;;5026545;28;20117;-70
2021/03/07 01:32:00;;;;;;;15.52;10.15;;;-0.60;1.00;;;;;;5023493;28;20034;-69
2021/03/07 01:34:25;;;;;;;14.63;9.18;;;-0.70;1.00;;;;;;5019131;28;20053;-69
2021/03/07 01:36:51;;;;;;;12.23;9.57;;;-0.60;1.00;;;;;;5014870;28;20026;-69
2021/03/07 01:39:16;;;;;;;13.38;9.65;;;-0.70;1.00;;;;;;5017504;28;20052;-69
2021/03/07 01:41:42;;;;;;;13.38;11.10;;;-0.60;1.00;;;;;;5015815;28;20044;-69
2021/03/07 01:44:07;;;;;;;13.90;9.68;;;-0.70;1.00;;;;;;5014775;28;20026;-69
2021/03/07 01:46:33;;;;;;;17.58;10.30;;;-0.70;1.00;;;;;;5015284;28;20022;-68
2021/03/07 01:48:59;;;;;;;13.82;10.82;;;-0.70;1.00;;;;;;5015143;28;20441;-69
2021/03/07 01:51:25;;;;;;;14.13;10.82;;;-0.70;1.00;;;;;;5014559;28;20033;-69
2021/03/07 01:53:51;;;;;;;13.40;11.52;;;-0.70;1.00;;;;;;5016246;28;20058;-69
2021/03/07 01:56:17;;;;;;;13.90;11.38;;;-0.70;1.00;;;;;;5015157;28;20037;-70
2021/03/07 01:58:47;;;;;;;17.27;10.88;;;-0.80;1.00;;;;;;5014825;28;20026;-68
2021/03/07 02:01:13;;;;;;;14.55;10.32;;;-0.80;1.00;;;;;;5016451;28;20433;-68
2021/03/07 02:03:52;;;;;;;16.50;12.05;;;-0.80;1.00;;;;;;5015546;28;20028;-68
2021/03/07 02:06:18;;;;;;;15.57;10.68;;;-0.80;1.00;;;;;;5015082;28;20478;-67
2021/03/07 02:08:44;;;;;;;13.43;10.85;;;-0.80;6.70;;;;;;5014993;28;20108;-68
2021/03/07 02:11:10;;;;;;;11.73;9.73;;;-0.80;7.50;;;;;;5015637;28;20461;-69
2021/03/07 02:13:38;;;;;;;14.68;10.77;;;-0.80;10.90;;;;;;5013609;28;20124;-69
2021/03/07 02:16:08;;;;;;;14.27;11.25;;;-0.80;19.80;;;;;;5014570;28;20030;-69
2021/03/07 02:18:36;;;;;;;12.43;10.05;;;-0.90;23.70;;;;;;5013254;28;20397;-69
2021/03/07 02:21:17;;;;;;;15.52;11.20;;;-0.90;25.20;;;;;;5013840;28;20033;-69
2021/03/07 02:24:06;;;;;;;15.70;10.15;;;-0.90;19.50;;;;;;5014007;28;20486;-68
2021/03/07 02:26:34;;;;;;;15.75;10.43;;;-1.00;35.20;;;;;;5013966;28;20057;-68
2021/03/07 02:29:02;;;;;;;10.93;9.77;;;-1.10;56.30;;;;;;5013787;28;20022;-68
2021/03/07 02:31:28;;;;;;;12.30;8.90;;;-1.00;50.80;;;;;;5013682;28;20123;-70
2021/03/07 02:34:08;;;;;;;12.57;9.77;;;-1.00;43.50;;;;;;5013856;28;20489;-69
2021/03/07 02:36:39;;;;;;;13.32;10.45;;;-1.00;51.40;;;;;;5014686;28;20026;-69
2021/03/07 02:39:06;;;;;;;13.32;10.57;;;-1.00;49.20;;;;;;5014338;28;20033;-69
2021/03/07 02:41:34;;;;;;;13.68;10.23;;;-1.10;53.10;;;;;;5014403;28;20028;-70
2021/03/07 02:44:03;;;;;;;11.25;9.75;;;-1.00;48.40;;;;;;5013198;28;20026;-69
2021/03/07 02:46:31;;;;;;;11.25;9.77;;;-0.80;17.40;;;;;;5012758;28;20121;-69
2021/03/07 02:49:00;;;;;;;13.15;10.43;;;-0.50;1.00;;;;;;5013590;28;20025;-69
2021/03/07 02:51:30;;;;;;;14.98;10.13;;;-0.40;1.00;;;;;;5013599;28;20036;-69
2021/03/07 02:54:01;;;;;;;15.68;9.73;;;-0.40;1.00;;;;;;5013478;28;20109;-69
2021/03/07 02:56:29;;;;;;;10.30;8.55;;;-0.40;1.00;;;;;;5013527;28;20056;-68
2021/03/07 02:58:59;;;;;;;12.25;9.30;;;-0.40;1.00;;;;;;5011693;28;20109;-69
2021/03/07 03:01:28;;;;;;;11.90;9.30;;;-0.50;1.00;;;;;;5013951;28;20029;-69
2021/03/07 03:03:54;;;;;;;11.43;9.15;;;-0.60;1.00;;;;;;5013902;28;20068;-69
2021/03/07 03:06:21;;;;;;;11.63;8.95;;;-0.60;1.00;;;;;;5014006;28;20026;-68
2021/03/07 03:08:51;;;;;;;10.80;8.60;;;-0.60;1.00;;;;;;5012775;28;20068;-68
2021/03/07 03:11:20;;;;;;;14.43;9.00;;;-0.60;1.00;;;;;;5017006;28;20482;-69
2021/03/07 03:13:49;;;;;;;15.02;9.13;;;-0.70;1.00;;;;;;5025741;28;20062;-68
2021/03/07 03:16:16;;;;;;;13.73;9.85;;;-0.80;1.00;;;;;;5024822;28;20029;-68
2021/03/07 03:18:43;;;;;;;13.13;10.00;;;-0.90;30.70;;;;;;5017333;28;20026;-68
2021/03/07 03:21:12;;;;;;;16.52;10.05;;;-0.90;2.60;;;;;;5013956;28;20094;-69
2021/03/07 03:23:39;;;;;;;17.27;10.35;;;-1.00;34.80;;;;;;5013596;28;20030;-69
2021/03/07 03:26:05;;;;;;;17.77;9.98;;;-1.10;51.20;;;;;;5013330;28;20062;-69
2021/03/07 03:28:32;;;;;;;12.23;10.07;;;-1.20;64.00;;;;;;5013426;28;20061;-68
2021/03/07 03:30:58;;;;;;;15.25;10.77;;;-1.30;89.20;;;;;;5013385;28;20026;-68
2021/03/07 03:33:24;;;;;;;18.38;11.63;;;-1.40;93.10;;;;;;5013313;28;20107;-69
2021/03/07 03:35:50;;;;;;;11.75;9.57;;;-1.40;94.00;;;;;;5013437;28;20465;-69
2021/03/07 03:38:17;;;;;;;13.60;10.00;;;-1.40;99.80;;;;;;5013088;28;20144;-69
2021/03/07 03:40:45;;;;;;;16.17;10.20;;;-1.50;99.90;;;;;;5013475;28;20030;-68
2021/03/07 03:43:11;;;;;;;13.43;9.20;;;-1.50;99.90;;;;;;5015416;28;20037;-69
2021/03/07 03:45:40;;;;;;;10.50;9.05;;;-1.40;99.90;;;;;;5016379;28;20030;-69
2021/03/07 03:48:08;;;;;;;12.43;8.73;;;-1.40;99.90;;;;;;5017211;28;20022;-68
2021/03/07 03:50:38;;;;;;;21.73;10.82;;;-1.50;99.90;;;;;;5016794;28;20045;-69
2021/03/07 03:53:06;;;;;;;16.63;10.27;;;-1.60;99.90;;;;;;5017263;28;20037;-69
2021/03/07 03:55:32;;;;;;;13.70;10.30;;;-1.50;99.90;;;;;;5018789;28;20040;-69
2021/03/07 03:58:04;;;;;;;14.73;9.73;;;-1.50;99.90;;;;;;5016854;28;20030;-70
2021/03/07 04:00:33;;;;;;;14.00;8.77;;;-1.50;99.90;;;;;;5015504;28;20025;-69
2021/03/07 04:03:00;;;;;;;13.27;8.65;;;-1.60;99.90;;;;;;5015416;28;20022;-69
2021/03/07 04:05:27;;;;;;;11.50;9.52;;;-1.60;99.90;;;;;;5016274;28;20041;-69
2021/03/07 04:07:53;;;;;;;11.57;9.60;;;-1.60;99.90;;;;;;5017697;28;20022;-69
2021/03/07 04:10:20;;;;;;;9.65;8.00;;;-1.50;99.90;;;;;;5016981;28;20022;-69
2021/03/07 04:12:48;;;;;;;12.48;8.85;;;-1.40;75.70;;;;;;5014005;28;20529;-70
2021/03/07 04:15:18;;;;;;;12.15;9.18;;;-1.50;74.40;;;;;;5017277;28;20077;-69
2021/03/07 04:17:45;;;;;;;15.75;8.15;;;-1.50;93.80;;;;;;5015577;28;20078;-69
2021/03/07 04:20:12;;;;;;;11.77;9.77;;;-1.50;84.60;;;;;;5017072;28;20032;-68
2021/03/07 04:22:38;;;;;;;12.93;9.63;;;-1.50;99.90;;;;;;5016066;28;20085;-69
2021/03/07 04:25:05;;;;;;;14.65;10.73;;;-1.50;92.60;;;;;;5016276;28;20061;-68
2021/03/07 04:27:32;;;;;;;17.95;10.07;;;-1.50;99.10;;;;;;5031274;28;20149;-68
2021/03/07 04:29:58;;;;;;;10.85;9.30;;;-1.60;99.90;;;;;;5027907;28;20121;-69
2021/03/07 04:32:24;;;;;;;12.82;10.73;;;-1.60;99.90;;;;;;5027334;28;20030;-68
2021/03/07 04:34:50;;;;;;;14.73;10.07;;;-1.70;99.90;;;;;;5019331;28;20029;-69
2021/03/07 04:37:16;;;;;;;12.98;8.50;;;-1.70;99.90;;;;;;5017169;28;20504;-69
2021/03/07 04:39:42;;;;;;;13.70;9.20;;;-1.70;99.90;;;;;;5015484;28;20026;-69
2021/03/07 04:42:08;;;;;;;10.20;8.93;;;-1.80;99.90;;;;;;5020202;28;20025;-69
2021/03/07 04:44:34;;;;;;;14.65;8.65;;;-1.70;99.90;;;;;;5026017;28;20375;-70
2021/03/07 04:46:59;;;;;;;12.52;9.05;;;-1.70;99.90;;;;;;5025365;28;20062;-69
2021/03/07 04:49:25;;;;;;;9.52;8.38;;;-1.70;99.90;;;;;;5020917;28;20109;-68
2021/03/07 04:51:51;;;;;;;8.70;7.70;;;-1.80;99.90;;;;;;5015044;28;20025;-68
2021/03/07 04:54:17;;;;;;;10.20;8.93;;;-1.60;99.90;;;;;;5015642;28;20022;-69
2021/03/07 04:56:42;;;;;;;13.45;9.73;;;-1.60;89.80;;;;;;5016237;28;20097;-68
2021/03/07 04:59:09;;;;;;;14.98;8.93;;;-1.50;78.60;;;;;;5015676;28;20059;-69
2021/03/07 05:01:36;;;;;;;11.75;8.15;;;-1.50;67.30;;;;;;5015567;28;20033;-68
2021/03/07 05:04:02;;;;;;;13.48;8.52;;;-1.50;92.50;;;;;;5015597;28;20022;-68
2021/03/07 05:06:28;;;;;;;12.32;8.88;;;-1.60;99.90;;;;;;5014360;28;20018;-68
2021/03/07 05:08:53;;;;;;;11.00;8.48;;;-1.70;99.90;;;;;;5015892;28;20037;-68
2021/03/07 05:11:22;;;;;;;10.85;9.07;;;-1.70;99.90;;;;;;5015646;28;20076;-68
2021/03/07 05:13:49;;;;;;;10.10;8.48;;;-1.70;99.90;;;;;;5015386;28;20034;-68
2021/03/07 05:16:16;;;;;;;10.15;7.43;;;-1.80;99.90;;;;;;5015617;28;20079;-68
2021/03/07 05:18:45;;;;;;;13.43;7.68;;;-1.80;99.90;;;;;;5015203;28;20542;-69
2021/03/07 05:21:11;;;;;;;11.35;8.88;;;-1.80;99.90;;;;;;5015506;28;20034;-68
2021/03/07 05:23:37;;;;;;;14.25;10.32;;;-1.80;99.90;;;;;;5015340;28;20080;-69
2021/03/07 05:26:03;;;;;;;13.88;9.65;;;-1.80;99.90;;;;;;5015219;28;20054;-67
2021/03/07 05:28:29;;;;;;;13.48;10.25;;;-1.80;99.90;;;;;;5013626;28;20482;-69
2021/03/07 05:30:54;;;;;;;13.15;8.57;;;-1.80;99.90;;;;;;5013406;28;20056;-68
2021/03/07 05:33:20;;;;;;;14.68;9.75;;;-1.80;99.90;;;;;;5014997;28;20382;-68
2021/03/07 05:35:46;;;;;;;13.45;9.50;;;-1.80;99.90;;;;;;5014984;28;20080;-69
2021/03/07 05:38:11;;;;;;;9.13;7.65;;;-1.70;99.90;;;;;;5016907;28;20022;-69
2021/03/07 05:40:37;;;;;;;10.50;8.18;;;-1.60;99.90;;;;;;5016058;28;20037;-68
2021/03/07 05:43:07;;;;;;;13.82;8.60;;;-1.50;99.90;;;;;;5013272;28;20018;-69
2021/03/07 05:45:33;;;;;;;13.07;8.10;;;-1.30;82.20;;;;;;5014686;28;20040;-68
2021/03/07 05:47:59;;;;;;;12.65;8.20;;;-1.20;68.10;;;;;;5013767;28;20385;-68
2021/03/07 05:50:25;;;;;;;13.55;8.00;;;-1.30;66.90;;;;;;5015650;28;20049;-68
2021/03/07 05:52:53;;;;;;;24.05;11.63;;;-1.40;72.30;;;;;;5015772;28;20029;-70
2021/03/07 05:55:19;;;;;;;13.38;8.38;;;-1.50;99.90;;;;;;5014943;28;20053;-68
2021/03/07 05:57:47;;;;;;;13.75;8.27;;;-1.60;99.90;;;;;;5015682;28;20058;-71
2021/03/07 06:00:14;;;;;;;12.23;9.60;;;-1.70;99.90;;;;;;5014719;28;20045;-69
2021/03/07 06:02:41;;;;;;;14.82;10.13;;;-1.70;99.90;;;;;;5014778;28;20026;-69
2021/03/07 06:05:07;;;;;;;11.70;10.10;;;-1.70;99.90;;;;;;5014903;28;20045;-69
2021/03/07 06:07:33;;;;;;;14.18;9.07;;;-1.70;99.90;;;;;;5014258;28;20554;-69
2021/03/07 06:10:15;;;;;;;11.73;8.95;;;-1.70;99.90;;;;;;5014269;28;20149;-68
2021/03/07 06:12:42;;;;;;;13.98;9.60;;;-1.40;99.90;;;;;;5014473;28;20030;-69
2021/03/07 06:15:10;;;;;;;10.82;9.15;;;-1.10;99.90;;;;;;5015329;28;20030;-69
2021/03/07 06:17:43;;;;;;;13.02;8.80;;;-1.10;99.90;;;;;;5013135;28;20033;-68
2021/03/07 06:20:17;;;;;;;13.63;8.77;;;-1.00;99.90;;;;;;5014449;28;20032;-68
2021/03/07 06:23:01;;;;;;;12.07;8.57;;;-1.20;99.90;;;;;;5015041;28;20601;-69
2021/03/07 06:25:27;;;;;;;13.98;8.40;;;-1.10;99.90;;;;;;5014540;28;20389;-67
2021/03/07 06:27:53;;;;;;;12.32;8.52;;;-1.10;96.50;;;;;;5014146;28;20030;-68
2021/03/07 06:30:23;;;;;;;13.50;8.15;;;-1.00;70.20;;;;;;5014273;28;20029;-69
2021/03/07 06:32:51;;;;;;;11.48;8.48;;;-0.80;22.40;;;;;;5013836;28;20022;-68
2021/03/07 06:35:23;;;;;;;10.93;8.48;;;-0.80;40.60;;;;;;5015408;28;20022;-69
2021/03/07 06:38:07;;;;;;;11.98;8.40;;;-0.90;55.10;;;;;;5015402;28;20041;-69
2021/03/07 06:40:35;;;;;;;13.82;8.15;;;-0.90;45.70;;;;;;5013788;28;20131;-69
2021/03/07 06:43:02;;;;;;;16.70;8.63;;;-0.70;1.00;;;;;;5012866;28;20022;-68
2021/03/07 06:45:42;;;;;;;12.30;9.13;;;-0.80;21.00;;;;;;5012412;28;20109;-68
2021/03/07 06:48:09;;;;;;;15.77;8.80;;;-0.70;1.00;;;;;;5014253;28;20028;-68
2021/03/07 06:50:37;;;;;;;8.90;7.38;;;-0.70;1.90;;;;;;5013999;28;20026;-68
2021/03/07 06:53:02;;;;;;;10.93;8.45;;;-0.70;6.20;;;;;;5014071;28;20033;-69
2021/03/07 06:55:43;;;;;;;13.85;9.15;;;-0.70;1.00;;;;;;5014171;28;20441;-69
2021/03/07 06:58:17;;;;;;;9.63;8.40;;;-0.60;1.00;;;;;;5013536;28;20033;-68
2021/03/07 07:00:43;;;;;;;10.50;8.55;;;-0.50;1.00;;;;;;5012473;28;20116;-69
2021/03/07 07:03:13;;;;;;;11.32;7.65;;;-0.30;1.00;;;;;;5013496;28;20029;-68
2021/03/07 07:05:50;;;;;;;12.52;8.35;;;0.00;1.00;;;;;;5014136;28;20088;-68
2021/03/07 07:08:17;;;;;;;9.68;8.18;;;0.10;1.00;;;;;;5013881;28;20425;-69
2021/03/07 07:10:49;;;;;;;11.05;7.57;;;0.00;1.00;;;;;;5013235;28;20030;-70
2021/03/07 07:13:14;;;;;;;11.48;9.35;;;-0.10;1.00;;;;;;5013829;28;20034;-69
2021/03/07 07:15:58;;;;;;;12.60;8.80;;;0.10;1.00;;;;;;5013705;28;20109;-70
2021/03/07 07:18:27;;;;;;;13.48;8.52;;;0.20;1.00;;;;;;5014169;28;20087;-69
2021/03/07 07:20:54;;;;;;;10.10;7.50;;;0.60;99.90;;;;;;5016164;28;20037;-69
2021/03/07 07:23:20;;;;;;;13.55;8.05;;;0.80;99.90;;;;;;5018753;28;20425;-69
2021/03/07 07:25:46;;;;;;;11.23;7.75;;;0.80;99.90;;;;;;5018202;28;20026;-69
2021/03/07 07:28:12;;;;;;;11.48;8.23;;;0.80;99.90;;;;;;5017713;28;20038;-69
2021/03/07 07:30:38;;;;;;;14.43;8.13;;;0.90;99.90;;;;;;5016712;28;20033;-69
2021/03/07 07:33:09;;;;;;;11.07;8.60;;;1.10;99.90;;;;;;5017471;28;20180;-69
2021/03/07 07:35:36;;;;;;;10.02;7.60;;;1.30;99.90;;;;;;5017476;28;20030;-71
2021/03/07 07:38:03;;;;;;;11.85;7.65;;;1.10;99.90;;;;;;5017969;28;20034;-69
2021/03/07 07:40:36;;;;;;;8.82;7.90;;;1.30;99.90;;;;;;5015876;28;20018;-70
2021/03/07 07:43:03;;;;;;;10.05;7.72;;;1.30;15.70;;;;;;5015136;28;20033;-69
2021/03/07 07:45:29;;;;;;;12.05;7.50;;;1.50;1.00;;;;;;5020623;28;20029;-69
2021/03/07 07:47:57;;;;;;;7.82;6.20;;;1.30;81.80;;;;;;5020496;28;20390;-69
2021/03/07 07:50:29;;;;;;;11.00;7.68;;;1.30;1.00;;;;;;5020990;28;20489;-69
2021/03/07 07:52:56;;;;;;;11.68;8.40;;;1.30;99.90;;;;;;5020231;28;20029;-70
2021/03/07 07:55:40;;;;;;;9.55;8.02;;;1.40;99.90;;;;;;5025853;28;20022;-68
2021/03/07 07:58:06;;;;;;;9.00;7.35;;;1.60;1.00;;;;;;5026035;28;20026;-69
2021/03/07 08:00:51;;;;;;;8.95;7.18;;;1.70;17.20;;;;;;5025684;28;20032;-70
2021/03/07 08:03:30;;;;;;;8.98;7.63;;;1.80;1.40;;;;;;5023088;28;20437;-70
2021/03/07 08:05:56;;;;;;;13.32;8.30;;;1.90;1.00;;;;;;5017497;28;20045;-70
2021/03/07 08:08:33;;;;;;;8.93;8.02;;;1.60;21.80;;;;;;5016835;28;20026;-69
2021/03/07 08:10:59;;;;;;;9.77;7.68;;;1.70;1.00;;;;;;5015955;28;20026;-68
2021/03/07 08:13:28;;;;;;;9.10;7.13;;;2.00;99.90;;;;;;5015852;28;20022;-68
2021/03/07 08:15:58;;;;;;;13.90;7.47;;;2.00;99.90;;;;;;5018041;28;20030;-69
2021/03/07 08:18:43;;;;;;;11.77;8.63;;;1.80;99.90;;;;;;5017026;28;20032;-69
2021/03/07 08:21:09;;;;;;;10.68;6.78;;;2.10;99.90;;;;;;5017137;28;20032;-69
2021/03/07 08:23:59;;;;;;;9.90;7.80;;;2.20;1.00;;;;;;5018397;28;20018;-70
2021/03/07 08:26:28;;;;;;;8.85;7.13;;;2.20;99.90;;;;;;5017852;28;20030;-69
2021/03/07 08:28:54;;;;;;;7.68;6.70;;;2.40;99.90;;;;;;5017405;28;20038;-70
2021/03/07 08:31:20;;;;;;;9.52;7.38;;;2.50;99.90;;;;;;5016933;28;20083;-69
2021/03/07 08:33:46;;;;;;;9.50;7.72;;;2.40;1.00;;;;;;5016704;28;20086;-69
2021/03/07 08:36:15;;;;;;;8.57;7.50;;;2.40;1.00;;;;;;5016636;28;20029;-69
2021/03/07 08:38:52;;;;;;;9.70;8.18;;;2.40;1.00;;;;;;5016466;28;20445;-68
2021/03/07 08:41:23;;;;;;;8.93;6.82;;;2.70;1.00;;;;;;5018425;28;20022;-68
2021/03/07 08:43:51;;;;;;;7.82;7.03;;;2.70;99.90;;;;;;5016526;28;20041;-69
2021/03/07 08:46:24;;;;;;;12.77;7.35;;;2.80;99.90;;;;;;5015213;28;20076;-67
2021/03/07 08:49:09;;;;;;;10.38;8.02;;;3.30;1.00;;;;;;5016819;28;20547;-69
2021/03/07 08:51:36;;;;;;;8.32;7.43;;;3.40;1.00;;;;;;5017420;28;20056;-69
2021/03/07 08:54:05;;;;;;;10.13;8.15;;;3.70;99.90;;;;;;5016464;28;20030;-69
2021/03/07 08:56:31;;;;;;;9.68;7.57;;;3.50;30.60;;;;;;5016631;28;20576;-69
2021/03/07 08:58:57;;;;;;;8.23;7.35;;;3.80;99.90;;;;;;5016108;28;20137;-69
2021/03/07 09:01:24;;;;;;;8.45;7.55;;;3.80;99.90;;;;;;5017588;28;20101;-69
2021/03/07 09:04:01;;;;;;;8.73;7.82;;;4.00;99.90;;;;;;5018059;28;20080;-68
2021/03/07 09:06:28;;;;;;;11.40;8.23;;;4.00;99.90;;;;;;5016742;28;20072;-69
2021/03/07 09:09:16;;;;;;;10.20;7.35;;;4.10;99.90;;;;;;5017604;28;20057;-69
2021/03/07 09:11:56;;;;;;;10.43;7.57;;;4.20;99.90;;;;;;5022366;28;20030;-68
2021/03/07 09:14:35;;;;;;;11.18;8.20;;;4.10;63.60;;;;;;5026547;28;20036;-69
2021/03/07 09:17:08;;;;;;;10.77;7.80;;;4.20;1.00;;;;;;5025739;28;20018;-69
2021/03/07 09:19:41;;;;;;;9.93;7.68;;;4.30;13.60;;;;;;5019158;28;20099;-69
2021/03/07 09:22:15;;;;;;;11.18;8.20;;;4.50;99.90;;;;;;5017425;28;20022;-69
2021/03/07 09:25:00;;;;;;;8.23;6.93;;;5.00;99.90;;;;;;5017308;28;20539;-69
2021/03/07 09:27:35;;;;;;;8.57;7.35;;;5.10;5.30;;;;;;5016821;28;20477;-69
2021/03/07 09:30:03;;;;;;;8.88;7.80;;;4.90;99.90;;;;;;5015981;28;20030;-69
2021/03/07 09:32:43;;;;;;;9.00;8.10;;;4.80;1.00;;;;;;5016806;28;20105;-69
2021/03/07 09:35:31;;;;;;;9.07;7.70;;;5.00;99.90;;;;;;5025219;28;20030;-69
2021/03/07 09:38:00;;;;;;;8.48;7.43;;;5.10;99.90;;;;;;5027523;28;20101;-70
2021/03/07 09:40:28;;;;;;;8.65;7.57;;;5.30;1.00;;;;;;5030186;28;20114;-69
2021/03/07 09:42:59;;;;;;;9.95;7.55;;;5.40;1.00;;;;;;5029257;28;20053;-69
2021/03/07 09:45:25;;;;;;;8.68;7.78;;;5.50;99.90;;;;;;5032275;28;20034;-69
2021/03/07 09:47:54;;;;;;;9.52;8.45;;;5.60;99.90;;;;;;5019687;28;20032;-68
2021/03/07 09:50:22;;;;;;;9.35;7.75;;;5.40;1.00;;;;;;5018944;28;20022;-68
2021/03/07 09:52:48;;;;;;;9.95;8.95;;;5.30;10.20;;;;;;5018626;28;20030;-69
2021/03/07 09:55:26;;;;;;;9.48;8.52;;;5.50;1.00;;;;;;5017548;28;20367;-69
2021/03/07 09:58:00;;;;;;;9.10;8.15;;;5.70;1.00;;;;;;5017354;28;20026;-70
2021/03/07 10:00:27;;;;;;;8.93;7.60;;;5.80;99.90;;;;;;5017176;28;20030;-69
2021/03/07 10:02:53;;;;;;;8.38;7.55;;;6.20;1.00;;;;;;5021328;28;20025;-70
2021/03/07 10:05:18;;;;;;;9.15;8.15;;;6.70;1.00;;;;;;5022304;28;20014;-70
2021/03/07 10:07:44;;;;;;;9.13;7.82;;;7.40;99.90;;;;;;5016519;28;20025;-69
2021/03/07 10:10:21;;;;;;;9.82;7.43;;;7.40;99.10;;;;;;5014871;28;20033;-69
2021/03/07 10:12:50;;;;;;;10.32;8.55;;;7.50;55.50;;;;;;5015185;28;20018;-68
2021/03/07 10:15:29;;;;;;;8.68;7.65;;;7.20;99.90;;;;;;5014918;28;20022;-70
2021/03/07 10:17:56;;;;;;;10.68;8.55;;;7.10;99.90;;;;;;5014568;28;20457;-70
2021/03/07 10:20:22;;;;;;;9.55;8.40;;;7.30;99.90;;;;;;5015005;28;20049;-70
2021/03/07 10:22:48;;;;;;;12.32;8.13;;;7.70;99.90;;;;;;5015660;28;20055;-70
2021/03/07 10:25:30;;;;;;;8.90;7.88;;;8.00;1.00;;;;;;5014358;28;20128;-71
2021/03/07 10:28:07;;;;;;;9.60;7.95;;;7.80;1.00;;;;;;5014182;28;20049;-69
2021/03/07 10:30:34;;;;;;;8.73;7.72;;;8.30;1.00;;;;;;5016448;28;20018;-71
2021/03/07 10:33:09;;;;;;;9.13;8.20;;;8.30;1.00;;;;;;5016272;28;20455;-70
2021/03/07 10:35:35;;;;;;;10.48;9.05;;;8.00;1.00;;;;;;5015320;28;20025;-69
2021/03/07 10:38:01;;;;;;;12.15;9.32;;;8.20;1.00;;;;;;5014720;28;20026;-70
2021/03/07 10:40:31;;;;;;;12.27;9.20;;;8.10;1.00;;;;;;5014336;28;20030;-70
2021/03/07 10:43:04;;;;;;;10.47;9.37;;;8.20;1.00;;;;;;5014127;28;20087;-69
2021/03/07 10:45:30;;;;;;;9.65;8.05;;;8.10;10.80;;;;;;5016746;28;20026;-71
2021/03/07 10:48:01;;;;;;;9.75;8.80;;;7.40;99.90;;;;;;5020205;28;20489;-68
2021/03/07 10:50:27;;;;;;;;;;;7.60;99.90;;;;;;5019109;28;20014;-69
2021/03/07 10:52:53;;;;;;;9.68;8.63;;;8.00;99.90;;;;;;5019802;28;20492;-70
2021/03/07 10:55:19;;;;;;;10.80;9.05;;;8.10;71.00;;;;;;5019417;28;20045;-69
2021/03/07 10:57:44;;;;;;;10.57;9.02;;;7.90;99.90;;;;;;5016278;28;20478;-70
2021/03/07 11:00:12;;;;;;;9.82;8.80;;;7.90;99.90;;;;;;5014570;28;20393;-70
2021/03/07 11:02:37;;;;;;;11.30;9.00;;;8.40;84.50;;;;;;5014612;28;20478;-70
2021/03/07 11:05:04;;;;;;;10.68;8.43;;;8.50;1.00;;;;;;5014421;28;20080;-70
2021/03/07 11:07:29;;;;;;;9.90;8.88;;;8.60;1.00;;;;;;5014036;28;20026;-71
2021/03/07 11:09:55;;;;;;;9.93;8.90;;;8.60;1.00;;;;;;5014026;28;20162;-70
2021/03/07 11:12:21;;;;;;;10.18;8.63;;;8.30;38.60;;;;;;5013901;28;20029;-69
2021/03/07 11:14:46;;;;;;;11.25;10.05;;;8.60;63.10;;;;;;5012400;28;20030;-70
2021/03/07 11:17:12;;;;;;;10.85;9.82;;;8.10;83.70;;;;;;5013250;28;20029;-69
2021/03/07 11:19:37;;;;;;;10.55;9.45;;;8.20;99.90;;;;;;5013540;28;20030;-70
2021/03/07 11:22:03;;;;;;;11.40;9.98;;;8.70;13.30;;;;;;5013716;28;20049;-70
2021/03/07 11:24:29;;;;;;;11.95;9.43;;;8.80;18.10;;;;;;5013193;28;20097;-69
2021/03/07 11:26:55;;;;;;;11.60;10.35;;;8.70;1.00;;;;;;5013167;28;20508;-70
2021/03/07 11:29:21;;;;;;;10.30;9.05;;;8.30;99.90;;;;;;5016665;28;20025;-69
2021/03/07 11:31:47;;;;;;;10.48;8.93;;;8.10;99.90;;;;;;5024369;28;20026;-69
2021/03/07 11:34:12;;;;;;;12.50;9.70;;;8.00;99.90;;;;;;5027281;28;20033;-69
2021/03/07 11:36:38;;;;;;;10.05;8.95;;;7.90;99.90;;;;;;5028468;28;20026;-69
2021/03/07 11:39:04;;;;;;;10.98;9.13;;;8.00;99.90;;;;;;5028814;28;20049;-69
2021/03/07 11:41:29;;;;;;;11.95;9.85;;;8.00;1.00;;;;;;5031792;28;20034;-69
2021/03/07 11:43:55;;;;;;;10.18;9.18;;;8.30;1.00;;;;;;5030293;28;20053;-70
2021/03/07 11:46:21;;;;;;;11.00;9.75;;;8.50;99.90;;;;;;5033737;28;20097;-69
2021/03/07 11:48:46;;;;;;;10.50;9.40;;;8.70;99.90;;;;;;5035771;28;20053;-69
2021/03/07 11:51:12;;;;;;;12.45;8.95;;;8.80;99.90;;;;;;5035762;28;20014;-69
2021/03/07 11:53:38;;;;;;;10.57;9.48;;;8.60;99.90;;;;;;5034804;28;20085;-69
2021/03/07 11:56:04;;;;;;;10.02;9.00;;;8.90;99.90;;;;;;5036463;28;20068;-70
2021/03/07 11:58:29;;;;;;;10.60;9.50;;;9.00;64.90;;;;;;5034781;28;20037;-70
2021/03/07 12:00:55;;;;;;;9.90;8.68;;;9.00;48.10;;;;;;5036488;28;20038;-69
2021/03/07 12:03:21;;;;;;;10.23;9.13;;;8.40;1.00;;;;;;5036423;28;20030;-70
2021/03/07 12:05:46;;;;;;;9.98;8.63;;;8.10;99.90;;;;;;5036510;28;20010;-70
2021/03/07 12:08:12;;;;;;;10.50;9.43;;;8.50;99.90;;;;;;5036041;28;20014;-71
2021/03/07 12:10:37;;;;;;;9.43;8.38;;;8.50;99.90;;;;;;5034525;28;20037;-70
2021/03/07 12:13:03;;;;;;;9.43;8.52;;;8.40;99.90;;;;;;5032376;28;20018;-70
2021/03/07 12:15:29;;;;;;;10.98;9.88;;;8.30;49.60;;;;;;5035739;28;20030;-70
2021/03/07 12:17:54;;;;;;;11.15;8.93;;;8.10;64.20;;;;;;5036221;28;20022;-70
2021/03/07 12:20:20;;;;;;;9.98;8.82;;;8.60;14.10;;;;;;5036735;28;20044;-69
2021/03/07 12:22:47;;;;;;;10.52;9.43;;;8.30;1.00;;;;;;5035796;28;20014;-69
2021/03/07 12:25:14;;;;;;;12.65;10.02;;;8.50;1.00;;;;;;5036574;28;20017;-69
2021/03/07 12:27:40;;;;;;;9.35;8.45;;;8.60;1.00;;;;;;5036043;28;20044;-69
2021/03/07 12:30:07;;;;;;;9.85;8.75;;;8.80;1.00;;;;;;5027846;28;20049;-70
2021/03/07 12:32:32;;;;;;;9.70;8.75;;;9.20;1.00;;;;;;5020165;28;20030;-69
2021/03/07 12:34:58;;;;;;;9.95;8.95;;;9.20;99.90;;;;;;5018482;28;20041;-69
2021/03/07 12:37:24;;;;;;;10.35;9.35;;;9.20;99.90;;;;;;5021202;28;20033;-69
2021/03/07 12:39:49;;;;;;;12.82;10.23;;;9.10;99.90;;;;;;5020772;28;20032;-69
2021/03/07 12:42:15;;;;;;;9.82;8.82;;;9.20;99.90;;;;;;5021754;28;20018;-70
2021/03/07 12:44:41;;;;;;;12.23;9.48;;;9.20;99.90;;;;;;5021947;28;20485;-68
2021/03/07 12:47:07;;;;;;;11.32;9.93;;;8.70;1.00;;;;;;5022822;28;20045;-69
2021/03/07 12:49:33;;;;;;;12.77;10.15;;;8.80;1.00;;;;;;5021388;28;20121;-70
2021/03/07 12:51:59;;;;;;;11.57;9.95;;;8.80;1.00;;;;;;5021482;28;20049;-68